Time;durP1;ratioP1;P1;durP2;ratioP2;P2;SDS_P1;SDS_P2;PMS_P1;PMS_P2;Temp;Humidity;BMP_temperature;BMP_pressure;BME280_temperature;BME280_humidity;BME280_pressure;Samples;Min_cycle;Max_cycle;Signal;HPM_P1;HPM_P2
2023/01/12 00:03:49;;;;;;;19.20;12.40;;;;;;;4.98;86.37;99615.06;209840;1295;141718;-67
2023/01/12 00:08:53;;;;;;;21.40;13.00;;;;;;;5.03;86.43;99621.65;208537;1284;140338;-65
2023/01/12 00:13:58;;;;;;;19.50;11.20;;;;;;;5.03;86.60;99625.31;208618;1293;140747;-67
2023/01/12 00:19:15;;;;;;;18.20;9.80;;;;;;;5.05;86.46;99632.23;208503;1285;141103;-65
2023/01/12 00:24:19;;;;;;;17.20;11.70;;;;;;;5.10;86.44;99631.02;208775;1294;139619;-68
2023/01/12 00:29:22;;;;;;;13.70;9.80;;;;;;;5.12;86.61;99637.56;208503;1286;140116;-66
2023/01/12 00:34:26;;;;;;;18.00;11.90;;;;;;;5.13;86.97;99640.41;209854;1286;139916;-65
2023/01/12 00:39:31;;;;;;;16.30;11.10;;;;;;;5.18;86.71;99644.48;209786;1285;140153;-67
2023/01/12 00:49:56;;;;;;;13.50;10.60;;;;;;;5.29;87.11;99645.33;210602;1293;235211;-67
2023/01/12 00:54:59;;;;;;;30.20;12.40;;;;;;;5.28;87.07;99654.39;210472;1294;140049;-67
2023/01/12 01:00:02;;;;;;;18.40;10.70;;;;;;;5.33;87.11;99659.94;209847;1294;141355;-68
2023/01/12 01:05:04;;;;;;;16.80;11.10;;;;;;;5.42;87.14;99662.84;210726;1285;140895;-66
2023/01/12 01:10:08;;;;;;;16.00;9.60;;;;;;;5.50;87.59;99671.70;210053;1278;139936;-64
2023/01/12 01:15:10;;;;;;;17.50;10.80;;;;;;;5.54;87.42;99671.02;209265;1285;140804;-67
2023/01/12 01:20:13;;;;;;;16.40;10.80;;;;;;;5.58;87.12;99666.97;209375;1279;140645;-65
2023/01/12 01:25:17;;;;;;;17.20;10.20;;;;;;;5.59;87.33;99672.34;209263;1286;140219;-65
2023/01/12 01:30:21;;;;;;;13.30;9.10;;;;;;;5.60;87.64;99676.66;209091;1294;139344;-66
2023/01/12 01:35:24;;;;;;;16.20;9.90;;;;;;;5.62;87.90;99680.85;209279;1286;141383;-66
2023/01/12 01:40:28;;;;;;;14.30;9.40;;;;;;;5.68;87.82;99681.46;207974;1279;139598;-68
2023/01/12 01:45:31;;;;;;;13.50;10.90;;;;;;;5.70;88.18;99689.71;208526;1285;139606;-67
2023/01/12 01:50:39;;;;;;;18.20;11.10;;;;;;;5.72;88.26;99692.04;207812;1292;139378;-68
2023/01/12 01:55:58;;;;;;;14.70;10.00;;;;;;;5.80;88.23;99696.84;208003;1286;141019;-68
2023/01/12 02:01:02;;;;;;;15.90;10.60;;;;;;;5.85;88.43;99704.63;207614;1285;140742;-67
2023/01/12 02:06:06;;;;;;;13.80;9.50;;;;;;;5.86;88.43;99697.02;208553;1294;140719;-67
2023/01/12 02:16:37;;;;;;;13.60;10.20;;;;;;;5.90;88.75;99713.92;207902;1285;140381;-67
2023/01/12 02:21:57;;;;;;;16.30;11.20;;;;;;;5.97;88.87;99711.38;209445;1293;142283;-67
2023/01/12 02:27:26;;;;;;;17.50;10.90;;;;;;;6.00;88.98;99709.14;209174;1286;141118;-67
2023/01/12 02:32:53;;;;;;;16.70;10.60;;;;;;;5.99;88.75;99712.27;208640;1278;234309;-67
2023/01/12 02:37:59;;;;;;;16.40;10.20;;;;;;;6.04;89.17;99715.53;208786;1292;142064;-67
2023/01/12 02:43:24;;;;;;;14.10;10.80;;;;;;;6.13;88.83;99714.93;208359;1292;140569;-68
2023/01/12 02:48:43;;;;;;;17.30;11.60;;;;;;;6.15;88.82;99714.36;208677;1294;140484;-67
2023/01/12 02:53:58;;;;;;;18.40;11.50;;;;;;;6.16;88.96;99715.36;208858;1278;140038;-66
2023/01/12 02:59:08;;;;;;;15.90;10.80;;;;;;;6.17;88.64;99710.55;209844;1292;140849;-68
2023/01/12 03:04:12;;;;;;;21.60;12.90;;;;;;;6.16;88.75;99709.87;208888;1292;142139;-66
2023/01/12 03:09:18;;;;;;;15.60;10.60;;;;;;;6.17;89.10;99701.04;208117;1292;140337;-66
2023/01/12 03:14:22;;;;;;;14.80;11.00;;;;;;;6.16;89.23;99702.74;207667;1285;139929;-67
2023/01/12 03:19:31;;;;;;;19.20;10.70;;;;;;;6.23;89.04;99709.13;207912;1292;140942;-65
2023/01/12 03:24:39;;;;;;;19.30;13.00;;;;;;;6.25;89.19;99709.09;207811;1278;140851;-65
2023/01/12 03:29:50;;;;;;;19.60;12.60;;;;;;;6.26;89.26;99706.52;207874;1294;139310;-66
2023/01/12 03:34:54;;;;;;;25.20;12.00;;;;;;;6.28;89.53;99711.94;207728;1294;140049;-66
2023/01/12 03:40:06;;;;;;;21.00;13.10;;;;;;;6.27;89.36;99716.33;208775;1292;140340;-65
2023/01/12 03:45:21;;;;;;;18.60;12.70;;;;;;;6.23;89.13;99720.90;208191;1286;140062;-65
2023/01/12 03:50:34;;;;;;;22.80;13.50;;;;;;;6.26;89.67;99723.42;208006;1278;141608;-66
2023/01/12 03:55:38;;;;;;;23.30;12.20;;;;;;;6.33;89.74;99730.05;207719;1278;140959;-68
2023/01/12 04:00:41;;;;;;;15.00;11.20;;;;;;;6.37;89.19;99730.62;208172;1285;141584;-69
2023/01/12 04:05:45;;;;;;;15.90;13.20;;;;;;;6.37;89.40;99732.70;208000;1278;250930;-66
2023/01/12 04:10:49;;;;;;;17.90;12.30;;;;;;;6.38;90.15;99735.75;207948;1294;140065;-66
2023/01/12 04:15:51;;;;;;;18.10;10.80;;;;;;;6.45;89.82;99739.50;208473;1292;141793;-64
2023/01/12 04:20:56;;;;;;;16.80;12.80;;;;;;;6.50;90.11;99737.16;208273;1284;162260;-66
2023/01/12 04:26:01;;;;;;;17.60;12.20;;;;;;;6.54;89.73;99743.60;209838;1292;140401;-66
2023/01/12 04:31:04;;;;;;;16.40;11.60;;;;;;;6.54;89.77;99747.46;209272;1284;140558;-66
2023/01/12 04:36:10;;;;;;;16.60;10.10;;;;;;;6.57;89.38;99749.09;209030;1294;140803;-67
2023/01/12 04:41:13;;;;;;;13.80;10.60;;;;;;;6.63;89.50;99752.50;209311;1292;140254;-66
2023/01/12 04:46:16;;;;;;;25.60;11.60;;;;;;;6.68;89.96;99759.42;210345;1285;141098;-68
2023/01/12 04:51:19;;;;;;;12.00;9.60;;;;;;;6.69;90.09;99756.97;210796;1290;139945;-67
2023/01/12 04:56:23;;;;;;;9.50;7.40;;;;;;;6.75;89.22;99761.25;209560;1278;141240;-68
2023/01/12 05:01:28;;;;;;;13.00;9.80;;;;;;;6.73;89.39;99761.34;207888;1286;140475;-66
2023/01/12 05:06:31;;;;;;;13.00;9.20;;;;;;;6.70;89.32;99765.45;209284;1288;141104;-67
2023/01/12 05:11:33;;;;;;;16.50;9.90;;;;;;;6.73;89.34;99764.98;208087;1292;141748;-65
2023/01/12 05:16:37;;;;;;;15.40;10.80;;;;;;;6.72;89.48;99774.88;209820;1287;140393;-67
2023/01/12 05:21:40;;;;;;;16.40;11.40;;;;;;;6.73;89.58;99777.66;208202;1286;139782;-67
2023/01/12 05:26:43;;;;;;;15.80;10.70;;;;;;;6.73;89.85;99778.94;208630;1297;141690;-65
2023/01/12 05:31:46;;;;;;;17.90;12.40;;;;;;;6.74;89.50;99782.60;208228;1292;141243;-67
2023/01/12 05:36:50;;;;;;;15.90;13.60;;;;;;;6.71;89.31;99784.54;207798;1286;140312;-66
2023/01/12 05:47:15;;;;;;;14.40;11.20;;;;;;;6.55;89.35;99789.35;209283;1286;140130;-66
2023/01/12 05:52:18;;;;;;;17.20;10.40;;;;;;;6.50;89.09;99788.17;208062;1276;142115;-66
2023/01/12 05:57:22;;;;;;;16.90;12.20;;;;;;;6.52;89.49;99786.30;207909;1286;140515;-66
2023/01/12 06:02:25;;;;;;;16.60;10.70;;;;;;;6.49;89.28;99781.29;208000;1286;140284;-66
2023/01/12 06:07:28;;;;;;;17.40;11.30;;;;;;;6.42;89.40;99783.27;208109;1286;139384;-66
2023/01/12 06:17:58;;;;;;;16.40;10.00;;;;;;;6.34;89.05;99789.08;207919;1286;223708;-66
2023/01/12 06:23:06;;;;;;;15.70;10.90;;;;;;;6.27;88.86;99797.79;209686;1292;140936;-68
2023/01/12 06:28:11;;;;;;;19.20;12.30;;;;;;;6.23;88.98;99805.73;208802;1286;140969;-68
2023/01/12 06:33:15;;;;;;;19.80;11.60;;;;;;;6.17;89.16;99807.40;208199;1294;140104;-68
2023/01/12 06:38:20;;;;;;;16.90;9.70;;;;;;;6.16;88.95;99802.42;208993;1288;140029;-67
2023/01/12 06:43:23;;;;;;;13.70;9.30;;;;;;;6.13;89.30;99809.35;208245;1285;150549;-68
2023/01/12 06:48:27;;;;;;;16.90;11.10;;;;;;;6.08;88.94;99801.56;209639;1284;139843;-69
2023/01/12 06:53:42;;;;;;;14.00;10.60;;;;;;;6.07;88.89;99803.35;210586;1294;141655;-72
2023/01/12 06:58:45;;;;;;;16.20;10.70;;;;;;;6.03;89.14;99805.38;210493;1291;140889;-71
2023/01/12 07:03:48;;;;;;;14.80;10.00;;;;;;;6.01;88.86;99803.95;210275;1285;140415;-70
2023/01/12 07:08:51;;;;;;;12.90;9.30;;;;;;;5.94;88.40;99803.33;207842;1284;140907;-67
2023/01/12 07:13:54;;;;;;;17.50;10.90;;;;;;;5.82;88.32;99802.60;207793;1285;143765;-69
2023/01/12 07:18:57;;;;;;;18.90;11.30;;;;;;;5.67;88.65;99810.35;207522;1286;219933;-68
2023/01/12 07:24:01;;;;;;;16.30;13.40;;;;;;;5.61;88.62;99818.31;207833;1295;143231;-67
2023/01/12 07:29:04;;;;;;;16.40;10.50;;;;;;;5.60;88.93;99823.77;208727;1301;141226;-67
2023/01/12 07:34:07;;;;;;;17.30;9.60;;;;;;;5.61;88.98;99832.27;208424;1286;140189;-66
2023/01/12 07:39:11;;;;;;;14.20;9.60;;;;;;;5.62;88.95;99837.10;207885;1281;140993;-66
2023/01/12 07:44:14;;;;;;;17.60;10.10;;;;;;;5.62;88.62;99833.08;207677;1286;140833;-66
2023/01/12 07:49:18;;;;;;;19.00;11.00;;;;;;;5.63;88.91;99824.45;207919;1292;210124;-68
2023/01/12 07:54:21;;;;;;;14.20;10.80;;;;;;;5.63;88.87;99815.30;207850;1288;139650;-67
2023/01/12 07:59:24;;;;;;;12.70;10.50;;;;;;;5.59;88.63;99812.20;207567;1286;140045;-67
2023/01/12 08:04:27;;;;;;;14.70;10.70;;;;;;;5.51;88.35;99810.39;207645;1285;140561;-67
2023/01/12 08:09:29;;;;;;;17.70;10.80;;;;;;;5.48;88.48;99815.90;207239;1278;139927;-70
2023/01/12 08:14:37;;;;;;;13.20;9.50;;;;;;;5.41;88.51;99816.28;207873;1286;140585;-69
2023/01/12 08:19:50;;;;;;;16.90;10.80;;;;;;;5.34;88.48;99820.20;208842;1287;140515;-68
2023/01/12 08:24:59;;;;;;;21.10;13.50;;;;;;;5.34;88.42;99822.31;208513;1298;141227;-67
2023/01/12 08:30:07;;;;;;;10.10;7.60;;;;;;;5.45;88.88;99820.73;209929;1295;139874;-67
2023/01/12 08:35:11;;;;;;;;;;;;;;;5.55;88.51;99818.66;210094;1298;764129;-69
2023/01/12 08:40:14;;;;;;;11.70;9.40;;;;;;;5.66;88.84;99817.23;211246;1292;127021;-68
2023/01/12 08:45:19;;;;;;;13.70;8.40;;;;;;;5.81;88.71;99821.23;210751;1295;140327;-69
2023/01/12 08:50:23;;;;;;;13.70;9.10;;;;;;;5.91;88.42;99822.61;208759;1285;139186;-68
2023/01/12 08:55:29;;;;;;;12.50;8.70;;;;;;;5.95;88.40;99826.48;208600;1285;236543;-69
2023/01/12 09:00:33;;;;;;;10.30;7.60;;;;;;;6.04;88.56;99822.80;209188;1285;142079;-67
2023/01/12 09:05:37;;;;;;;10.10;7.40;;;;;;;6.15;88.33;99818.44;209751;1286;139839;-68
2023/01/12 09:10:41;;;;;;;11.00;6.50;;;;;;;6.24;88.24;99822.91;208608;1286;139196;-68
2023/01/12 09:15:51;;;;;;;9.70;6.30;;;;;;;6.34;88.04;99820.52;209073;1292;140152;-67
2023/01/12 09:21:19;;;;;;;10.60;7.20;;;;;;;6.46;87.97;99813.43;209532;1295;249001;-68
2023/01/12 09:26:30;;;;;;;9.30;6.80;;;;;;;6.56;88.03;99804.02;208508;1293;139801;-68
2023/01/12 09:31:36;;;;;;;7.90;5.50;;;;;;;6.70;87.89;99802.52;208519;1286;139417;-68
2023/01/12 09:36:41;;;;;;;8.60;6.00;;;;;;;6.82;87.75;99784.91;208226;1278;139723;-68
2023/01/12 09:47:51;;;;;;;14.60;7.70;;;;;;;6.93;87.22;99782.27;208077;1286;219977;-69
2023/01/12 09:53:15;;;;;;;13.00;7.40;;;;;;;6.97;86.79;99773.20;207560;1290;151412;-67
2023/01/12 09:58:27;;;;;;;13.30;7.60;;;;;;;7.09;86.73;99759.92;208265;1293;140845;-69
2023/01/12 10:03:37;;;;;;;9.40;6.10;;;;;;;7.18;86.53;99745.46;207930;1286;140053;-69
2023/01/12 10:09:01;;;;;;;12.00;6.30;;;;;;;7.27;86.36;99745.25;207621;1294;243747;-70
2023/01/12 10:14:33;;;;;;;9.50;7.70;;;;;;;7.39;86.05;99748.30;208794;1291;141679;-70
2023/01/12 10:19:50;;;;;;;11.70;6.60;;;;;;;7.54;86.14;99755.48;207774;1292;139812;-67
2023/01/12 10:24:52;;;;;;;10.20;6.70;;;;;;;7.70;85.77;99761.80;208789;1285;140285;-68
2023/01/12 10:29:58;;;;;;;12.60;6.70;;;;;;;7.89;85.75;99750.94;207973;1286;223337;-70
2023/01/12 10:35:03;;;;;;;14.10;6.80;;;;;;;8.04;85.44;99740.95;207600;1289;139935;-70
2023/01/12 10:40:19;;;;;;;8.40;4.70;;;;;;;8.16;85.02;99733.38;207712;1285;139506;-72
2023/01/12 10:45:23;;;;;;;13.50;6.30;;;;;;;8.32;84.83;99736.20;209115;1284;140792;-70
2023/01/12 10:50:28;;;;;;;10.40;6.10;;;;;;;8.41;84.30;99734.74;210538;1277;141004;-70
2023/01/12 10:55:37;;;;;;;9.60;5.30;;;;;;;8.50;84.18;99729.06;207904;1291;141592;-68
2023/01/12 11:00:47;;;;;;;15.00;6.80;;;;;;;8.61;83.60;99717.44;210693;1292;139608;-68
2023/01/12 11:05:51;;;;;;;12.50;5.60;;;;;;;8.75;83.23;99707.46;208797;1285;142312;-68
2023/01/12 11:10:55;;;;;;;5.60;4.10;;;;;;;8.88;83.14;99700.46;208299;1278;223671;-68
2023/01/12 11:16:08;;;;;;;8.80;4.50;;;;;;;8.94;82.62;99693.30;208877;1295;139580;-70
2023/01/12 11:21:16;;;;;;;12.30;5.30;;;;;;;9.01;82.13;99685.24;208682;1284;140718;-72
2023/01/12 11:26:25;;;;;;;6.50;3.50;;;;;;;9.08;81.75;99682.58;207933;1291;140681;-72
2023/01/12 11:31:35;;;;;;;12.20;3.80;;;;;;;9.13;81.39;99671.80;207734;1285;139492;-71
2023/01/12 11:36:42;;;;;;;6.40;3.80;;;;;;;9.21;81.33;99661.25;207948;1286;140518;-72
2023/01/12 11:47:15;;;;;;;8.90;3.50;;;;;;;9.28;80.58;99644.79;208513;1286;236761;-71
2023/01/12 11:52:19;;;;;;;7.80;3.40;;;;;;;9.31;80.10;99639.27;208398;1286;139365;-67
2023/01/12 11:57:40;;;;;;;10.70;4.50;;;;;;;9.30;79.83;99639.56;207968;1281;140653;-69
2023/01/12 12:03:08;;;;;;;7.10;3.50;;;;;;;9.31;79.47;99634.48;207750;1285;139716;-70
2023/01/12 12:08:29;;;;;;;6.10;3.00;;;;;;;9.31;79.29;99629.36;207714;1285;139640;-69
2023/01/12 12:13:41;;;;;;;7.80;3.00;;;;;;;9.36;79.20;99621.95;208492;1282;141570;-70
2023/01/12 12:18:46;;;;;;;6.60;3.80;;;;;;;9.34;78.87;99622.52;209381;1291;140846;-68
2023/01/12 12:24:02;;;;;;;25.40;5.50;;;;;;;9.32;78.72;99622.47;209274;1292;159451;-72
2023/01/12 12:29:23;;;;;;;9.90;4.30;;;;;;;9.36;78.56;99608.98;209081;1286;140006;-65
2023/01/12 12:34:54;;;;;;;6.10;4.00;;;;;;;9.36;78.54;99609.44;210682;1294;139758;-65
2023/01/12 12:40:25;;;;;;;4.00;2.80;;;;;;;9.37;78.20;99601.65;210051;1286;139182;-68
2023/01/12 12:46:04;;;;;;;7.40;3.50;;;;;;;9.38;77.97;99595.29;209865;1282;139722;-65
2023/01/12 12:51:13;;;;;;;6.10;3.30;;;;;;;9.36;77.48;99593.86;210534;1296;141618;-69
2023/01/12 12:56:23;;;;;;;4.70;3.60;;;;;;;9.35;77.50;99593.13;209516;1293;248370;-66
2023/01/12 13:01:33;;;;;;;4.40;2.40;;;;;;;9.39;77.67;99587.13;210690;1295;140474;-68
2023/01/12 13:06:49;;;;;;;62.60;38.20;;;;;;;9.35;76.90;99583.18;207997;1295;139569;-67
2023/01/12 13:12:00;;;;;;;27.70;17.20;;;;;;;9.24;76.83;99576.68;208942;1294;140969;-70
2023/01/12 13:17:20;;;;;;;10.10;5.00;;;;;;;9.22;77.12;99571.15;208087;1288;139645;-67
2023/01/12 13:22:47;;;;;;;9.00;4.10;;;;;;;9.14;76.59;99569.54;207911;1295;142891;-67
2023/01/12 13:28:08;;;;;;;6.00;3.30;;;;;;;9.05;76.66;99565.77;208601;1300;139614;-69
2023/01/12 13:33:14;;;;;;;4.20;2.70;;;;;;;8.94;76.44;99563.73;207893;1286;139303;-68
2023/01/12 13:38:42;;;;;;;5.30;2.70;;;;;;;8.83;76.46;99560.98;208082;1284;139414;-67
2023/01/12 13:43:47;;;;;;;8.20;4.70;;;;;;;8.72;76.34;99562.33;207670;1286;140825;-68
2023/01/12 13:48:54;;;;;;;8.50;3.30;;;;;;;8.59;76.35;99559.48;208032;1287;140546;-68
2023/01/12 13:54:00;;;;;;;3.00;1.90;;;;;;;8.50;76.53;99555.92;207897;1286;140478;-69
2023/01/12 13:59:06;;;;;;;7.30;4.10;;;;;;;8.39;76.21;99561.63;207672;1284;141771;-69
2023/01/12 14:04:16;;;;;;;5.80;3.90;;;;;;;8.27;76.41;99556.84;207753;1286;141320;-69
2023/01/12 14:09:23;;;;;;;7.90;3.50;;;;;;;8.17;76.34;99552.01;208982;1300;139575;-66
2023/01/12 14:20:15;;;;;;;5.80;2.10;;;;;;;8.02;76.60;99553.71;207420;1287;140235;-69
2023/01/12 14:25:23;;;;;;;6.80;3.30;;;;;;;7.88;76.72;99555.21;207448;1286;139784;-68
2023/01/12 14:30:27;;;;;;;6.80;2.10;;;;;;;7.78;76.82;99550.95;207810;1292;139738;-67
2023/01/12 14:35:30;;;;;;;9.70;2.70;;;;;;;7.74;76.96;99542.94;209711;1282;139839;-70
2023/01/12 14:40:33;;;;;;;8.70;3.40;;;;;;;7.67;76.94;99540.44;210486;1293;139561;-64
2023/01/12 14:51:21;;;;;;;6.90;2.20;;;;;;;7.45;76.94;99528.39;210587;1286;242636;-64
2023/01/12 14:56:33;;;;;;;5.60;3.30;;;;;;;7.40;76.78;99534.14;209225;1292;140400;-69
2023/01/12 15:01:41;;;;;;;6.60;3.10;;;;;;;7.32;76.89;99539.90;209361;1295;142525;-69
2023/01/12 15:06:45;;;;;;;9.80;4.60;;;;;;;7.24;77.08;99542.59;208407;1293;140098;-70
2023/01/12 15:11:49;;;;;;;28.20;13.30;;;;;;;7.16;77.40;99529.60;208165;1301;139476;-69
2023/01/12 15:27:40;;;;;;;8.20;5.00;;;;;;;6.90;77.48;99531.00;208556;1286;141783;-69
2023/01/12 15:32:43;;;;;;;15.70;6.40;;;;;;;6.78;77.63;99532.09;208436;1286;140359;-67
2023/01/12 15:37:53;;;;;;;10.60;4.20;;;;;;;6.71;77.82;99534.31;208450;1292;140383;-67
2023/01/12 15:42:57;;;;;;;6.20;3.90;;;;;;;6.67;77.69;99533.34;207605;1289;141468;-68
2023/01/12 15:48:02;;;;;;;13.20;4.90;;;;;;;6.62;78.05;99531.09;208974;1292;141184;-67
2023/01/12 15:53:18;;;;;;;10.90;5.20;;;;;;;6.60;78.21;99523.80;207784;1290;142567;-63
2023/01/12 15:58:22;;;;;;;11.20;5.20;;;;;;;6.50;77.83;99521.61;208825;1292;141764;-64
2023/01/12 16:03:27;;;;;;;12.50;5.70;;;;;;;6.44;78.26;99523.20;208513;1294;139685;-67
2023/01/12 16:08:51;;;;;;;7.20;5.20;;;;;;;6.33;78.29;99517.29;208011;1285;139869;-73
2023/01/12 16:13:56;;;;;;;11.90;4.60;;;;;;;6.31;78.39;99513.71;209228;1278;140795;-69
2023/01/12 16:19:00;;;;;;;12.70;5.90;;;;;;;6.32;78.54;99507.56;208372;1284;140794;-66
2023/01/12 16:24:03;;;;;;;12.00;5.50;;;;;;;6.31;78.56;99498.15;209662;1291;142397;-67
2023/01/12 16:29:07;;;;;;;8.00;6.20;;;;;;;6.25;78.49;99492.11;207753;1291;140119;-68
2023/01/12 16:34:14;;;;;;;9.30;6.70;;;;;;;6.21;78.30;99492.41;207729;1292;142699;-68
2023/01/12 16:39:23;;;;;;;7.70;4.40;;;;;;;6.17;78.54;99490.04;210505;1295;141796;-68
2023/01/12 16:44:27;;;;;;;15.10;6.30;;;;;;;6.11;79.14;99483.80;210278;1295;140103;-63
2023/01/12 16:49:33;;;;;;;10.30;5.20;;;;;;;6.09;79.08;99477.93;210302;1285;140439;-64
2023/01/12 16:54:41;;;;;;;11.70;5.70;;;;;;;6.13;78.63;99478.13;210360;1301;139792;-63
2023/01/12 16:59:48;;;;;;;9.60;5.80;;;;;;;6.10;78.87;99474.41;209691;1292;140654;-71
2023/01/12 17:04:52;;;;;;;8.00;5.30;;;;;;;6.11;78.93;99475.06;209393;1285;140392;-67
2023/01/12 17:09:56;;;;;;;9.00;5.20;;;;;;;6.17;79.06;99468.29;208595;1292;140406;-65
2023/01/12 17:14:59;;;;;;;17.80;5.50;;;;;;;6.25;79.10;99464.06;209745;1286;140720;-63
2023/01/12 17:20:04;;;;;;;6.80;4.40;;;;;;;6.28;79.25;99459.56;207899;1288;140215;-64
2023/01/12 17:25:08;;;;;;;12.00;5.70;;;;;;;6.27;79.33;99458.44;208042;1292;140898;-65
2023/01/12 17:30:12;;;;;;;13.30;5.60;;;;;;;6.26;79.30;99459.49;208117;1287;139892;-63
2023/01/12 17:35:16;;;;;;;11.70;6.60;;;;;;;6.27;79.51;99453.70;208921;1286;140337;-66
2023/01/12 17:40:19;;;;;;;9.20;5.70;;;;;;;6.30;79.40;99452.27;208314;1291;141169;-64
2023/01/12 17:45:22;;;;;;;7.30;4.80;;;;;;;6.30;79.32;99450.11;208504;1285;141394;-64
2023/01/12 17:50:26;;;;;;;9.70;5.90;;;;;;;6.31;79.50;99451.32;208423;1294;140949;-64
2023/01/12 17:55:31;;;;;;;10.40;5.40;;;;;;;6.31;79.09;99452.54;208762;1288;141374;-65
2023/01/12 18:00:43;;;;;;;9.90;5.80;;;;;;;6.31;78.94;99451.48;207889;1292;139477;-68
2023/01/12 18:05:50;;;;;;;6.70;3.40;;;;;;;6.33;79.21;99453.30;208604;1291;139966;-66
2023/01/12 18:11:08;;;;;;;9.50;6.30;;;;;;;6.36;79.02;99446.04;209121;1294;219678;-63
2023/01/12 18:16:14;;;;;;;15.80;6.10;;;;;;;6.34;79.38;99451.52;208176;1286;141959;-65
2023/01/12 18:21:24;;;;;;;10.50;6.60;;;;;;;6.39;79.21;99447.36;208311;1286;209209;-67
2023/01/12 18:26:30;;;;;;;;;;;;;;;6.44;79.34;99442.77;207970;1285;140427;-67
2023/01/12 18:31:39;;;;;;;9.20;5.20;;;;;;;6.41;79.49;99432.38;209530;1292;125940;-66
2023/01/12 18:36:48;;;;;;;6.60;4.60;;;;;;;6.40;79.70;99435.38;210657;1294;139555;-65
2023/01/12 18:58:08;;;;;;;12.10;6.10;;;;;;;6.48;79.05;99425.69;210496;1300;140990;-67
2023/01/12 19:03:15;;;;;;;7.20;4.20;;;;;;;6.48;79.18;99425.09;209888;1279;140449;-68
2023/01/12 19:18:57;;;;;;;9.20;5.90;;;;;;;6.53;79.05;99420.20;208228;1285;140012;-64
2023/01/12 19:29:24;;;;;;;14.90;7.80;;;;;;;6.50;79.14;99422.95;209019;1294;151294;-68
2023/01/12 19:34:27;;;;;;;10.30;6.70;;;;;;;6.49;79.13;99416.52;208160;1294;140951;-70
2023/01/12 19:44:49;;;;;;;11.00;6.80;;;;;;;6.46;79.05;99413.32;207725;1285;140713;-65
2023/01/12 19:49:53;;;;;;;9.30;5.30;;;;;;;6.43;78.93;99408.65;209788;1287;141279;-66
2023/01/12 19:54:57;;;;;;;11.10;7.30;;;;;;;6.39;79.15;99401.34;208401;1284;140080;-61
2023/01/12 20:00:06;;;;;;;11.90;5.90;;;;;;;6.40;79.34;99402.11;208080;1286;222089;-63
2023/01/12 20:05:11;;;;;;;8.90;5.00;;;;;;;6.39;79.20;99409.16;208890;1285;140685;-62
2023/01/12 20:10:17;;;;;;;11.30;5.60;;;;;;;6.38;79.16;99410.46;207868;1285;140558;-62
2023/01/12 20:15:21;;;;;;;8.80;5.60;;;;;;;6.40;79.58;99409.84;209579;1292;143875;-64
2023/01/12 20:20:23;;;;;;;10.60;6.30;;;;;;;6.46;79.40;99404.85;208132;1292;144103;-67
2023/01/12 20:25:27;;;;;;;12.20;5.20;;;;;;;6.45;79.43;99398.22;208253;1271;141462;-63
2023/01/12 20:30:30;;;;;;;7.20;4.70;;;;;;;6.41;79.20;99400.70;209766;1292;142060;-62
2023/01/12 20:35:45;;;;;;;9.10;5.60;;;;;;;6.45;79.16;99398.79;207843;1286;225163;-63
2023/01/12 20:40:49;;;;;;;12.50;6.20;;;;;;;6.49;79.47;99400.87;210795;1286;140084;-62
2023/01/12 20:45:53;;;;;;;11.20;6.70;;;;;;;6.49;79.34;99407.76;210436;1295;140309;-63
2023/01/12 20:50:56;;;;;;;6.70;3.90;;;;;;;6.52;78.86;99404.98;210594;1291;139810;-67
2023/01/12 20:56:00;;;;;;;11.00;5.80;;;;;;;6.56;79.17;99400.38;210231;1292;141036;-63
2023/01/12 21:01:09;;;;;;;9.80;4.80;;;;;;;6.59;79.23;99402.95;209901;1292;140197;-63
2023/01/12 21:06:16;;;;;;;8.70;6.50;;;;;;;6.62;79.26;99402.16;209511;1292;139452;-67
2023/01/12 21:11:21;;;;;;;15.20;5.60;;;;;;;6.64;79.66;99400.89;208898;1284;139321;-66
2023/01/12 21:16:25;;;;;;;9.20;4.40;;;;;;;6.67;79.09;99397.98;208969;1279;140295;-63
2023/01/12 21:21:28;;;;;;;10.40;4.70;;;;;;;6.72;79.17;99401.95;208740;1286;139640;-65
2023/01/12 21:26:32;;;;;;;9.10;5.30;;;;;;;6.70;79.50;99394.44;209184;1291;140460;-62
2023/01/12 21:31:34;;;;;;;11.80;4.50;;;;;;;6.68;79.24;99387.05;208847;1291;139738;-63
2023/01/12 21:36:38;;;;;;;6.10;3.90;;;;;;;6.66;79.35;99382.85;207871;1282;141323;-63
2023/01/12 21:47:08;;;;;;;11.10;3.80;;;;;;;6.62;79.77;99371.80;207771;1278;140128;-62
2023/01/12 21:52:11;;;;;;;9.40;4.40;;;;;;;6.60;79.21;99372.23;208100;1285;140593;-65
2023/01/12 21:57:14;;;;;;;10.00;4.10;;;;;;;6.58;79.44;99368.94;208844;1294;139344;-63
2023/01/12 22:02:17;;;;;;;10.50;4.80;;;;;;;6.54;79.50;99376.27;208592;1294;140606;-63
2023/01/12 22:07:19;;;;;;;7.50;4.30;;;;;;;6.52;79.53;99378.45;208075;1285;139440;-63
2023/01/12 22:12:22;;;;;;;9.60;4.80;;;;;;;6.52;79.56;99373.96;208581;1284;141411;-63
2023/01/12 22:17:24;;;;;;;7.90;5.40;;;;;;;6.53;79.94;99377.09;208711;1288;141061;-65
2023/01/12 22:22:26;;;;;;;10.00;6.10;;;;;;;6.55;79.90;99368.65;208430;1292;141792;-65
2023/01/12 22:27:30;;;;;;;7.50;4.50;;;;;;;6.54;80.01;99368.78;210302;1295;141216;-63
2023/01/12 22:32:33;;;;;;;10.60;4.20;;;;;;;6.56;80.26;99365.70;208796;1294;141016;-66
2023/01/12 22:37:38;;;;;;;6.20;3.70;;;;;;;6.59;80.09;99363.45;209201;1292;140135;-62
2023/01/12 22:48:02;;;;;;;8.30;4.70;;;;;;;6.57;80.36;99354.01;210640;1298;140007;-64
2023/01/12 22:53:05;;;;;;;8.90;5.80;;;;;;;6.60;80.49;99359.31;210422;1295;141363;-66
2023/01/12 22:58:07;;;;;;;5.10;3.40;;;;;;;6.63;80.44;99356.48;209989;1295;140140;-66
2023/01/12 23:03:12;;;;;;;4.20;2.50;;;;;;;6.65;80.44;99351.45;210011;1292;139109;-65
2023/01/12 23:08:15;;;;;;;90.60;42.10;;;;;;;6.60;80.72;99351.09;210350;1286;141065;-64
2023/01/12 23:13:20;;;;;;;38.40;23.20;;;;;;;6.58;80.48;99348.33;209018;1278;140745;-64
2023/01/12 23:18:26;;;;;;;13.70;11.10;;;;;;;6.55;80.83;99351.73;209553;1291;140199;-63
2023/01/12 23:23:30;;;;;;;8.70;5.50;;;;;;;6.55;81.18;99358.66;208333;1292;139777;-62
2023/01/12 23:28:39;;;;;;;17.00;6.60;;;;;;;6.54;81.18;99349.95;207741;1286;140285;-66
2023/01/12 23:33:45;;;;;;;9.90;6.10;;;;;;;6.51;81.24;99355.03;207892;1285;141740;-65
2023/01/12 23:38:59;;;;;;;11.80;5.60;;;;;;;6.45;81.32;99352.67;208345;1282;140450;-63
2023/01/12 23:44:05;;;;;;;8.70;5.10;;;;;;;6.39;81.71;99348.23;208060;1284;139534;-63
2023/01/12 23:49:09;;;;;;;8.20;4.20;;;;;;;6.35;81.70;99346.14;208499;1286;140969;-64
2023/01/12 23:54:15;;;;;;;10.10;6.50;;;;;;;6.31;82.14;99352.94;208541;1292;139883;-64
2023/01/12 23:59:18;;;;;;;7.60;5.30;;;;;;;6.26;82.25;99351.82;208638;1285;140030;-62
